Time;durP1;ratioP1;P1;durP2;ratioP2;P2;SDS_P1;SDS_P2;PMS_P1;PMS_P2;Temp;Humidity;BMP_temperature;BMP_pressure;BME280_temperature;BME280_humidity;BME280_pressure;Samples;Min_cycle;Max_cycle;Signal;HPM_P1;HPM_P2
2024/01/21 00:01:08;;;;;;;15.70;6.90;;;;;;;;;;5097213;28;20010;-86
2024/01/21 00:03:34;;;;;;;11.88;5.95;;;;;;;;;;5114050;28;20485;-88
2024/01/21 00:06:00;;;;;;;15.23;6.80;;;;;;;;;;5091786;28;20040;-88
2024/01/21 00:08:26;;;;;;;;;;;;;;;;;;5079380;28;20046;-88
2024/01/21 00:10:52;;;;;;;14.70;6.53;;;;;;;;;;5083929;28;20357;-85
2024/01/21 00:13:18;;;;;;;;;;;;;;;;;;5094714;28;20043;-87
2024/01/21 00:15:44;;;;;;;13.52;5.90;;;;;;;;;;5096423;28;19931;-86
2024/01/21 00:18:10;;;;;;;13.55;6.35;;;;;;;;;;5086520;28;20040;-86
2024/01/21 00:20:36;;;;;;;;;;;;;;;;;;5080423;28;20043;-86
2024/01/21 00:23:02;;;;;;;16.65;5.90;;;;;;;;;;5110913;28;19926;-86
2024/01/21 00:25:28;;;;;;;;;;;;;;;;;;5094300;28;20442;-86
2024/01/21 00:27:54;;;;;;;14.77;6.13;;;;;;;;;;5106477;28;20014;-86
2024/01/21 00:30:20;;;;;;;;;;;;;;;;;;5082703;28;20044;-86
2024/01/21 00:32:46;;;;;;;12.35;5.63;;;;;;;;;;5096577;28;19942;-85
2024/01/21 00:35:12;;;;;;;;;;;;;;;;;;5104250;28;20040;-86
2024/01/21 00:37:38;;;;;;;16.48;6.00;;;;;;;;;;5093095;28;19920;-86
2024/01/21 00:40:05;;;;;;;15.05;6.25;;;;;;;;;;5098309;28;20109;-86
2024/01/21 00:42:31;;;;;;;14.90;5.93;;;;;;;;;;5095135;28;20635;-85
2024/01/21 00:44:57;;;;;;;;;;;;;;;;;;5104689;28;20508;-86
2024/01/21 00:47:23;;;;;;;13.50;5.63;;;;;;;;;;5094845;28;20429;-85
2024/01/21 00:49:49;;;;;;;;;;;;;;;;;;5111104;28;20047;-86
2024/01/21 00:52:15;;;;;;;13.43;6.13;;;;;;;;;;5078480;28;19920;-88
2024/01/21 00:54:41;;;;;;;11.43;5.13;;;;;;;;;;5076526;27;20480;-87
2024/01/21 00:57:07;;;;;;;;;;;;;;;;;;5097042;28;20051;-88
2024/01/21 00:59:33;;;;;;;11.32;5.53;;;;;;;;;;5095953;27;20376;-87
2024/01/21 01:01:59;;;;;;;12.63;6.40;;;;;;;;;;5117176;27;20043;-87
2024/01/21 01:04:25;;;;;;;12.35;5.15;;;;;;;;;;5096463;28;20174;-87
2024/01/21 01:06:51;;;;;;;12.00;5.30;;;;;;;;;;5107031;27;20148;-88
2024/01/21 01:09:17;;;;;;;;;;;;;;;;;;5099254;27;20065;-87
2024/01/21 01:11:43;;;;;;;13.27;5.43;;;;;;;;;;5100095;27;20379;-87
2024/01/21 01:14:09;;;;;;;;;;;;;;;;;;5078632;28;20039;-87
2024/01/21 01:16:39;;;;;;;18.95;5.10;;;;;;;;;;5106870;27;20047;-87
2024/01/21 01:19:05;;;;;;;12.68;5.13;;;;;;;;;;5112973;27;20043;-87
2024/01/21 01:21:31;;;;;;;11.02;5.00;;;;;;;;;;5116552;27;20046;-87
2024/01/21 01:23:57;;;;;;;;;;;;;;;;;;5095766;28;20122;-87
2024/01/21 01:26:24;;;;;;;12.60;4.95;;;;;;;;;;5087133;28;19966;-87
2024/01/21 01:28:52;;;;;;;;;;;;;;;;;;5099102;27;20043;-87
2024/01/21 01:31:19;;;;;;;9.13;4.47;;;;;;;;;;5116000;27;19919;-87
2024/01/21 01:33:45;;;;;;;10.20;5.00;;;;;;;;;;5103000;27;20039;-87
2024/01/21 01:36:11;;;;;;;;;;;;;;;;;;5099989;27;20039;-86
2024/01/21 01:38:37;;;;;;;8.75;4.43;;;;;;;;;;5114004;27;19923;-87
2024/01/21 01:41:04;;;;;;;9.70;4.45;;;;;;;;;;5096101;28;20051;-87
2024/01/21 01:43:30;;;;;;;10.73;4.68;;;;;;;;;;5108073;28;20083;-87
2024/01/21 01:46:00;;;;;;;10.40;4.72;;;;;;;;;;5090336;27;20373;-87
2024/01/21 01:48:26;;;;;;;10.50;4.38;;;;;;;;;;5115875;27;20047;-86
2024/01/21 01:50:53;;;;;;;10.90;5.03;;;;;;;;;;5095870;28;20488;-87
2024/01/21 01:53:19;;;;;;;11.85;5.07;;;;;;;;;;5110720;27;20047;-87
2024/01/21 01:55:45;;;;;;;;;;;;;;;;;;5096152;28;20052;-87
2024/01/21 01:58:12;;;;;;;8.13;4.13;;;;;;;;;;5098014;27;19919;-87
2024/01/21 02:00:38;;;;;;;10.23;4.28;;;;;;;;;;5115246;27;20047;-87
2024/01/21 02:03:04;;;;;;;;;;;;;;;;;;5099502;27;20488;-87
2024/01/21 02:05:30;;;;;;;7.88;4.05;;;;;;;;;;5098645;27;19919;-87
2024/01/21 02:07:56;;;;;;;;;;;;;;;;;;5081269;27;20039;-86
2024/01/21 02:10:22;;;;;;;10.60;4.13;;;;;;;;;;5103588;28;19943;-87
2024/01/21 02:12:48;;;;;;;;;;;;;;;;;;5094894;28;20086;-87
2024/01/21 02:15:14;;;;;;;7.55;3.85;;;;;;;;;;5095610;28;19920;-86
2024/01/21 02:17:40;;;;;;;;;;;;;;;;;;5088673;28;20048;-88
2024/01/21 02:20:09;;;;;;;8.02;3.70;;;;;;;;;;5079057;28;20015;-87
2024/01/21 02:22:39;;;;;;;8.73;3.72;;;;;;;;;;5077713;28;20047;-87
2024/01/21 02:25:05;;;;;;;8.50;4.00;;;;;;;;;;5095595;28;20058;-87
2024/01/21 02:27:31;;;;;;;;;;;;;;;;;;5071079;28;20086;-86
2024/01/21 02:29:57;;;;;;;8.15;3.65;;;;;;;;;;5100355;27;20025;-87
2024/01/21 02:32:23;;;;;;;8.25;3.75;;;;;;;;;;5094422;28;20393;-87
2024/01/21 02:34:49;;;;;;;;;;;;;;;;;;5094345;28;20093;-87
2024/01/21 02:37:15;;;;;;;8.02;3.20;;;;;;;;;;5098366;28;19978;-87
2024/01/21 02:39:41;;;;;;;8.80;3.20;;;;;;;;;;5077503;28;20050;-87
2024/01/21 02:42:07;;;;;;;6.90;3.30;;;;;;;;;;5061559;28;20181;-87
2024/01/21 02:44:33;;;;;;;8.18;3.58;;;;;;;;;;5061997;28;20184;-86
2024/01/21 02:46:59;;;;;;;6.55;3.10;;;;;;;;;;5094651;28;20044;-87
2024/01/21 02:49:28;;;;;;;;;;;;;;;;;;5095078;28;20068;-87
2024/01/21 02:51:58;;;;;;;4.90;2.50;;;;;;;;;;5095097;28;19993;-87
2024/01/21 02:54:24;;;;;;;6.80;2.83;;;;;;;;;;5077442;28;20431;-87
2024/01/21 02:56:51;;;;;;;5.63;2.72;;;;;;;;;;5077309;28;20138;-87
2024/01/21 02:59:16;;;;;;;;;;;;;;;;;;5094170;27;20055;-87
2024/01/21 03:01:43;;;;;;;5.28;2.58;;;;;;;;;;5094109;28;19919;-88
2024/01/21 03:04:08;;;;;;;;;;;;;;;;;;5078307;28;20039;-87
2024/01/21 03:06:35;;;;;;;5.55;2.75;;;;;;;;;;5077590;28;20393;-87
2024/01/21 03:09:00;;;;;;;;;;;;;;;;;;5078361;28;20043;-87
2024/01/21 03:11:26;;;;;;;5.40;2.20;;;;;;;;;;5077371;28;19920;-86
2024/01/21 03:13:53;;;;;;;;;;;;;;;;;;5077342;28;20039;-87
2024/01/21 03:16:19;;;;;;;3.90;1.95;;;;;;;;;;5096871;28;20367;-87
2024/01/21 03:18:45;;;;;;;4.25;2.05;;;;;;;;;;5080504;28;20731;-86
2024/01/21 03:21:11;;;;;;;;;;;;;;;;;;5098494;28;20449;-86
2024/01/21 03:23:37;;;;;;;4.22;2.10;;;;;;;;;;5113943;28;19923;-87
2024/01/21 03:26:03;;;;;;;;;;;;;;;;;;5081691;28;20146;-87
2024/01/21 03:28:29;;;;;;;4.88;2.50;;;;;;;;;;5095173;28;20009;-86
2024/01/21 03:30:55;;;;;;;;;;;;;;;;;;5087906;28;20468;-88
2024/01/21 03:33:21;;;;;;;5.13;2.05;;;;;;;;;;5114798;28;19940;-86
2024/01/21 03:35:47;;;;;;;4.30;2.10;;;;;;;;;;5106740;28;20047;-87
2024/01/21 03:38:14;;;;;;;3.47;1.77;;;;;;;;;;5094167;28;20051;-86
2024/01/21 03:40:40;;;;;;;;;;;;;;;;;;5094212;28;20048;-86
2024/01/21 03:43:06;;;;;;;5.30;2.30;;;;;;;;;;5076509;28;19920;-87
2024/01/21 03:45:32;;;;;;;4.80;2.20;;;;;;;;;;5093563;28;20105;-86
2024/01/21 03:47:58;;;;;;;;;;;;;;;;;;5078480;28;20043;-86
2024/01/21 03:50:24;;;;;;;4.18;2.05;;;;;;;;;;5113842;28;19923;-86
2024/01/21 03:52:50;;;;;;;;;;;;;;;;;;5094108;28;20051;-86
2024/01/21 03:55:17;;;;;;;4.95;1.83;;;;;;;;;;5077145;28;19926;-87
2024/01/21 03:57:43;;;;;;;3.55;1.90;;;;;;;;;;5092662;28;20488;-87
2024/01/21 04:00:09;;;;;;;;;;;;;;;;;;5061185;28;20044;-87
2024/01/21 04:02:35;;;;;;;7.28;1.80;;;;;;;;;;5076265;28;19926;-87
2024/01/21 04:05:03;;;;;;;4.68;1.73;;;;;;;;;;5094032;28;20051;-87
2024/01/21 04:07:29;;;;;;;3.45;1.55;;;;;;;;;;5093752;28;20130;-86
2024/01/21 04:09:55;;;;;;;4.15;1.92;;;;;;;;;;5092901;28;20050;-86
2024/01/21 04:12:21;;;;;;;;;;;;;;;;;;5094446;28;20101;-87
2024/01/21 04:14:47;;;;;;;5.10;1.80;;;;;;;;;;5106887;28;20441;-86
2024/01/21 04:17:13;;;;;;;4.55;1.85;;;;;;;;;;5097131;28;20043;-87
2024/01/21 04:19:39;;;;;;;;;;;;;;;;;;5080628;28;20047;-86
2024/01/21 04:22:05;;;;;;;4.20;1.70;;;;;;;;;;5096961;28;19926;-86
2024/01/21 04:24:31;;;;;;;4.63;1.98;;;;;;;;;;5096844;28;20134;-85
2024/01/21 04:26:57;;;;;;;3.42;1.60;;;;;;;;;;5110637;28;20105;-86
2024/01/21 04:29:23;;;;;;;;;;;;;;;;;;5081857;28;20039;-86
2024/01/21 04:31:49;;;;;;;7.28;2.10;;;;;;;;;;5097587;28;19997;-87
2024/01/21 04:34:16;;;;;;;3.20;1.77;;;;;;;;;;5101032;27;20078;-86
2024/01/21 04:36:43;;;;;;;4.25;1.77;;;;;;;;;;5117327;27;20399;-86
2024/01/21 04:39:09;;;;;;;2.75;1.70;;;;;;;;;;5117761;27;20054;-87
2024/01/21 04:41:35;;;;;;;;;;;;;;;;;;5117628;27;20073;-86
2024/01/21 04:44:01;;;;;;;3.90;1.60;;;;;;;;;;5116503;27;19920;-86
2024/01/21 04:46:28;;;;;;;5.80;2.10;;;;;;;;;;5100529;27;20116;-86
2024/01/21 04:48:54;;;;;;;3.40;2.17;;;;;;;;;;5117144;27;20134;-86
2024/01/21 04:51:20;;;;;;;3.33;1.58;;;;;;;;;;5117799;27;20050;-86
2024/01/21 04:53:46;;;;;;;;;;;;;;;;;;5112920;27;20039;-86
2024/01/21 04:56:18;;;;;;;2.25;1.52;;;;;;;;;;5111631;27;19972;-86
2024/01/21 04:58:45;;;;;;;4.00;2.00;;;;;;;;;;5096165;27;20055;-87
2024/01/21 05:01:16;;;;;;;2.65;1.52;;;;;;;;;;5116829;27;20093;-86
2024/01/21 05:03:42;;;;;;;3.45;1.70;;;;;;;;;;5116608;27;20400;-85
2024/01/21 05:06:08;;;;;;;5.05;1.70;;;;;;;;;;5100432;27;20103;-87
2024/01/21 05:08:34;;;;;;;;;;;;;;;;;;5100283;27;20047;-85
2024/01/21 05:11:00;;;;;;;3.27;1.93;;;;;;;;;;5100112;27;20249;-86
2024/01/21 05:13:26;;;;;;;;;;;;;;;;;;5101711;27;20526;-86
2024/01/21 05:15:52;;;;;;;2.45;1.40;;;;;;;;;;5088311;27;19919;-86
2024/01/21 05:18:20;;;;;;;4.43;1.88;;;;;;;;;;5100205;27;20450;-86
2024/01/21 05:20:46;;;;;;;2.55;1.40;;;;;;;;;;5082924;27;20047;-87
2024/01/21 05:23:13;;;;;;;4.43;1.58;;;;;;;;;;5099782;27;20130;-87
2024/01/21 05:25:39;;;;;;;3.78;2.00;;;;;;;;;;5099252;27;20441;-86
2024/01/21 05:28:04;;;;;;;;;;;;;;;;;;5116230;27;20186;-87
2024/01/21 05:30:31;;;;;;;2.60;1.75;;;;;;;;;;5094257;28;20382;-85
2024/01/21 05:32:56;;;;;;;;;;;;;;;;;;5079735;28;20640;-86
2024/01/21 05:35:23;;;;;;;3.83;1.70;;;;;;;;;;5096202;28;19923;-87
2024/01/21 05:37:49;;;;;;;5.15;1.98;;;;;;;;;;5078583;28;20054;-86
2024/01/21 05:40:16;;;;;;;4.07;2.00;;;;;;;;;;5094906;27;20051;-87
2024/01/21 05:42:42;;;;;;;5.88;2.10;;;;;;;;;;5113312;27;20085;-86
2024/01/21 05:45:08;;;;;;;3.30;1.80;;;;;;;;;;5080103;27;20051;-87
2024/01/21 05:47:34;;;;;;;3.38;1.80;;;;;;;;;;5115974;27;20514;-87
2024/01/21 05:50:00;;;;;;;;;;;;;;;;;;5099430;27;20084;-86
2024/01/21 05:52:26;;;;;;;5.05;2.20;;;;;;;;;;5116340;27;19982;-87
2024/01/21 05:54:52;;;;;;;;;;;;;;;;;;5101165;28;20496;-86
2024/01/21 05:57:19;;;;;;;4.18;2.08;;;;;;;;;;5095534;28;19981;-86
2024/01/21 05:59:44;;;;;;;;;;;;;;;;;;5078091;28;20134;-87
2024/01/21 06:02:10;;;;;;;5.68;2.17;;;;;;;;;;5095152;28;19985;-87
2024/01/21 06:04:37;;;;;;;4.20;2.00;;;;;;;;;;5080591;27;20058;-87
2024/01/21 06:07:03;;;;;;;5.72;2.60;;;;;;;;;;5098776;27;20134;-87
2024/01/21 06:09:29;;;;;;;;;;;;;;;;;;5108695;27;20476;-87
2024/01/21 06:11:55;;;;;;;4.35;2.30;;;;;;;;;;5115034;27;19926;-87
2024/01/21 06:14:21;;;;;;;6.13;2.42;;;;;;;;;;5081387;27;20051;-87
2024/01/21 06:16:47;;;;;;;6.00;2.72;;;;;;;;;;5098144;27;20035;-87
2024/01/21 06:19:13;;;;;;;5.22;2.35;;;;;;;;;;5098918;27;20062;-86
2024/01/21 06:21:43;;;;;;;5.90;2.75;;;;;;;;;;5101540;28;20075;-85
2024/01/21 06:24:09;;;;;;;5.07;2.30;;;;;;;;;;5095105;28;20036;-87
2024/01/21 06:26:37;;;;;;;5.53;2.95;;;;;;;;;;5078064;28;20051;-87
2024/01/21 06:29:04;;;;;;;5.68;2.60;;;;;;;;;;5091227;28;20058;-87
2024/01/21 06:31:30;;;;;;;5.45;2.83;;;;;;;;;;5079461;28;20048;-87
2024/01/21 06:33:56;;;;;;;7.07;3.28;;;;;;;;;;5115314;27;20043;-87
2024/01/21 06:36:25;;;;;;;;;;;;;;;;;;5099246;27;20075;-87
2024/01/21 06:38:51;;;;;;;6.40;2.83;;;;;;;;;;5114798;27;19919;-87
2024/01/21 06:41:17;;;;;;;7.70;3.35;;;;;;;;;;5098569;27;20050;-87
2024/01/21 06:43:44;;;;;;;5.55;2.72;;;;;;;;;;5076528;28;20047;-87
2024/01/21 06:46:10;;;;;;;;;;;;;;;;;;5095355;28;20447;-87
2024/01/21 06:48:36;;;;;;;5.53;2.75;;;;;;;;;;5095262;28;19919;-88
2024/01/21 06:51:08;;;;;;;;;;;;;;;;;;5094496;28;20043;-87
2024/01/21 06:53:34;;;;;;;9.00;3.17;;;;;;;;;;5094868;28;20020;-87
2024/01/21 06:56:04;;;;;;;16.65;5.15;;;;;;;;;;5046020;28;20060;-88
2024/01/21 06:58:31;;;;;;;8.35;3.88;;;;;;;;;;5066561;28;20048;-87
2024/01/21 07:00:57;;;;;;;;;;;;;;;;;;5088114;28;20048;-88
2024/01/21 07:03:23;;;;;;;7.53;3.53;;;;;;;;;;5071378;28;19920;-87
2024/01/21 07:05:49;;;;;;;8.77;4.00;;;;;;;;;;5054503;28;20395;-87
2024/01/21 07:08:15;;;;;;;10.75;3.50;;;;;;;;;;5088002;28;20397;-87
2024/01/21 07:10:41;;;;;;;10.10;3.95;;;;;;;;;;5091025;28;20111;-88
2024/01/21 07:13:07;;;;;;;7.18;3.65;;;;;;;;;;5073359;28;20390;-87
2024/01/21 07:15:33;;;;;;;8.50;3.63;;;;;;;;;;5056807;28;20055;-87
2024/01/21 07:17:59;;;;;;;8.35;3.63;;;;;;;;;;5090711;28;20493;-87
2024/01/21 07:20:25;;;;;;;11.30;4.45;;;;;;;;;;5091506;28;20551;-87
2024/01/21 07:22:52;;;;;;;6.93;3.85;;;;;;;;;;5073833;28;20481;-88
2024/01/21 07:25:18;;;;;;;11.20;3.95;;;;;;;;;;5091215;28;20059;-87
2024/01/21 07:27:44;;;;;;;10.18;4.25;;;;;;;;;;5056928;28;20048;-87
2024/01/21 07:30:11;;;;;;;9.93;4.60;;;;;;;;;;5077440;28;20049;-88
2024/01/21 07:32:37;;;;;;;10.07;4.50;;;;;;;;;;5074454;28;20052;-87
2024/01/21 07:35:04;;;;;;;10.65;5.03;;;;;;;;;;5057095;28;20044;-87
2024/01/21 07:37:30;;;;;;;13.63;4.70;;;;;;;;;;5070937;28;20488;-88
2024/01/21 07:39:56;;;;;;;9.57;5.13;;;;;;;;;;5087494;28;20041;-88
2024/01/21 07:42:22;;;;;;;10.52;4.28;;;;;;;;;;5054209;28;20044;-88
2024/01/21 07:44:48;;;;;;;9.73;4.35;;;;;;;;;;5090617;28;20041;-86
2024/01/21 07:47:14;;;;;;;8.32;4.63;;;;;;;;;;5073666;28;20047;-87
2024/01/21 07:49:40;;;;;;;10.38;4.75;;;;;;;;;;5091014;28;20079;-87
2024/01/21 07:52:06;;;;;;;10.90;4.35;;;;;;;;;;5090499;28;20040;-87
2024/01/21 07:54:32;;;;;;;11.70;4.47;;;;;;;;;;5087920;28;20036;-87
2024/01/21 07:56:58;;;;;;;11.95;5.28;;;;;;;;;;5092497;28;20075;-87
2024/01/21 07:59:25;;;;;;;10.57;5.28;;;;;;;;;;5073502;28;20131;-87
2024/01/21 08:01:51;;;;;;;10.40;4.45;;;;;;;;;;5091813;28;20048;-86
2024/01/21 08:04:17;;;;;;;9.50;4.53;;;;;;;;;;5087484;28;20036;-88
2024/01/21 08:06:43;;;;;;;10.70;4.63;;;;;;;;;;5081671;28;20051;-88
2024/01/21 08:09:09;;;;;;;;;;;;;;;;;;5115493;28;20094;-88
2024/01/21 08:11:35;;;;;;;10.30;5.25;;;;;;;;;;5115345;28;19920;-87
2024/01/21 08:14:01;;;;;;;;;;;;;;;;;;5094422;28;20126;-87
2024/01/21 08:16:27;;;;;;;9.82;5.00;;;;;;;;;;5098066;28;20018;-85
2024/01/21 08:18:53;;;;;;;;;;;;;;;;;;5078527;28;20049;-89
2024/01/21 08:21:19;;;;;;;9.65;4.88;;;;;;;;;;5095745;28;19924;-91
2024/01/21 08:23:45;;;;;;;16.52;4.78;;;;;;;;;;5061461;28;20051;-89
2024/01/21 08:26:11;;;;;;;10.68;4.68;;;;;;;;;;5094609;28;20052;-88
2024/01/21 08:28:37;;;;;;;;;;;;;;;;;;5060673;28;20098;-87
2024/01/21 08:31:03;;;;;;;11.30;4.97;;;;;;;;;;5110657;28;20311;-87
2024/01/21 08:33:29;;;;;;;10.02;4.57;;;;;;;;;;5081268;28;20047;-91
2024/01/21 08:35:55;;;;;;;15.68;4.95;;;;;;;;;;5076830;28;20043;-87
2024/01/21 08:38:21;;;;;;;;;;;;;;;;;;5089870;28;20051;-89
2024/01/21 08:40:47;;;;;;;10.45;4.32;;;;;;;;;;5109223;28;20353;-89
2024/01/21 08:43:13;;;;;;;11.60;4.65;;;;;;;;;;5096973;28;20040;-87
2024/01/21 08:45:39;;;;;;;8.93;4.68;;;;;;;;;;5080836;28;20044;-88
2024/01/21 08:48:05;;;;;;;10.57;4.63;;;;;;;;;;5097206;28;20052;-88
2024/01/21 08:50:31;;;;;;;9.05;4.55;;;;;;;;;;5114907;28;20050;-89
2024/01/21 08:52:58;;;;;;;9.20;5.05;;;;;;;;;;5080963;28;20069;-88
2024/01/21 08:55:24;;;;;;;9.50;5.10;;;;;;;;;;5099498;28;20047;-88
2024/01/21 08:57:50;;;;;;;;;;;;;;;;;;5091369;28;20055;-89
2024/01/21 09:00:16;;;;;;;9.07;5.05;;;;;;;;;;5084588;28;19920;-90
2024/01/21 09:02:42;;;;;;;10.82;5.07;;;;;;;;;;5087198;28;20078;-89
2024/01/21 09:05:09;;;;;;;11.95;5.80;;;;;;;;;;5088209;28;20094;-90
2024/01/21 09:07:34;;;;;;;;;;;;;;;;;;5105913;28;20062;-90
2024/01/21 09:10:03;;;;;;;12.95;5.22;;;;;;;;;;5088455;28;19920;-89
2024/01/21 09:12:30;;;;;;;9.27;4.78;;;;;;;;;;5094877;28;20098;-87
2024/01/21 09:14:56;;;;;;;10.00;5.40;;;;;;;;;;5095265;28;20051;-88
2024/01/21 09:17:22;;;;;;;11.68;5.22;;;;;;;;;;5105016;28;20095;-88
2024/01/21 09:19:48;;;;;;;;;;;;;;;;;;5095071;28;20059;-90
2024/01/21 09:22:14;;;;;;;11.18;5.07;;;;;;;;;;5104447;28;20010;-89
2024/01/21 09:24:40;;;;;;;;;;;;;;;;;;5114840;28;20044;-87
2024/01/21 09:27:06;;;;;;;9.40;4.43;;;;;;;;;;5108752;28;19973;-87
2024/01/21 09:29:32;;;;;;;10.40;4.68;;;;;;;;;;5077671;28;20523;-86
2024/01/21 09:31:59;;;;;;;10.27;4.40;;;;;;;;;;5086964;28;20462;-85
2024/01/21 09:34:25;;;;;;;10.50;5.47;;;;;;;;;;5100814;28;20046;-89
2024/01/21 09:36:52;;;;;;;9.77;5.30;;;;;;;;;;5096707;28;20047;-89
2024/01/21 09:39:21;;;;;;;12.05;6.05;;;;;;;;;;5096659;28;20126;-89
2024/01/21 09:41:51;;;;;;;10.50;5.13;;;;;;;;;;5101547;28;20071;-89
2024/01/21 09:44:21;;;;;;;10.73;5.20;;;;;;;;;;5107405;28;20053;-89
2024/01/21 09:46:51;;;;;;;10.10;4.70;;;;;;;;;;5096966;28;20047;-89
2024/01/21 09:49:18;;;;;;;9.48;5.00;;;;;;;;;;5113822;28;20143;-89
2024/01/21 09:51:45;;;;;;;12.20;5.68;;;;;;;;;;5096831;28;20432;-88
2024/01/21 09:54:11;;;;;;;12.77;5.72;;;;;;;;;;5113485;28;20047;-89
2024/01/21 09:56:38;;;;;;;10.57;5.05;;;;;;;;;;5113352;28;20059;-88
2024/01/21 09:59:05;;;;;;;10.95;5.60;;;;;;;;;;5091857;28;20130;-89
2024/01/21 10:01:32;;;;;;;11.65;5.25;;;;;;;;;;5091748;28;20040;-90
2024/01/21 10:03:58;;;;;;;11.23;5.00;;;;;;;;;;5076524;28;20051;-89
2024/01/21 10:06:26;;;;;;;11.18;5.47;;;;;;;;;;5076212;28;20043;-89
2024/01/21 10:08:52;;;;;;;11.45;5.25;;;;;;;;;;5076389;28;20052;-90
2024/01/21 10:11:18;;;;;;;9.25;4.88;;;;;;;;;;5076084;28;20066;-90
2024/01/21 10:13:45;;;;;;;9.18;4.65;;;;;;;;;;5092656;28;20497;-91
2024/01/21 10:16:12;;;;;;;11.02;5.22;;;;;;;;;;5093912;28;20046;-87
2024/01/21 10:18:38;;;;;;;10.80;4.93;;;;;;;;;;5113691;28;20071;-90
2024/01/21 10:21:05;;;;;;;;;;;;;;;;;;5096395;28;20051;-91
2024/01/21 10:23:31;;;;;;;9.27;5.05;;;;;;;;;;5113024;28;20579;-90
2024/01/21 10:25:57;;;;;;;11.05;5.03;;;;;;;;;;5096272;28;20059;-90
2024/01/21 10:28:23;;;;;;;;;;;;;;;;;;5079712;28;20044;-89
2024/01/21 10:30:49;;;;;;;10.82;4.90;;;;;;;;;;5092456;28;20670;-89
2024/01/21 10:33:15;;;;;;;;;;;;;;;;;;5075961;28;20051;-90
2024/01/21 10:35:42;;;;;;;9.82;4.88;;;;;;;;;;5092974;28;19920;-90
2024/01/21 10:38:11;;;;;;;9.93;4.80;;;;;;;;;;5080240;28;20052;-91
2024/01/21 10:40:44;;;;;;;11.52;5.63;;;;;;;;;;5087740;28;20678;-87
2024/01/21 10:43:19;;;;;;;11.52;5.45;;;;;;;;;;5089583;28;20049;-91
2024/01/21 10:45:46;;;;;;;11.63;5.10;;;;;;;;;;5087774;28;20052;-90
2024/01/21 10:48:16;;;;;;;10.70;5.20;;;;;;;;;;5075953;28;20135;-90
2024/01/21 10:50:42;;;;;;;11.20;5.03;;;;;;;;;;5075610;28;20055;-90
2024/01/21 10:53:12;;;;;;;10.55;4.60;;;;;;;;;;5075825;28;20047;-89
2024/01/21 10:55:40;;;;;;;10.90;4.93;;;;;;;;;;5093015;28;20056;-88
2024/01/21 10:58:08;;;;;;;12.55;5.40;;;;;;;;;;5111796;28;20044;-90
2024/01/21 11:00:34;;;;;;;10.52;4.97;;;;;;;;;;5094979;28;20047;-89
2024/01/21 11:03:19;;;;;;;12.65;5.25;;;;;;;;;;5106008;28;20047;-88
2024/01/21 11:05:47;;;;;;;9.05;4.72;;;;;;;;;;5084189;28;20071;-88
2024/01/21 11:08:14;;;;;;;10.40;4.80;;;;;;;;;;5074851;28;20139;-89
2024/01/21 11:10:40;;;;;;;11.07;4.72;;;;;;;;;;5085579;28;20039;-88
2024/01/21 11:13:09;;;;;;;10.73;5.55;;;;;;;;;;5099344;28;20044;-90
2024/01/21 11:15:35;;;;;;;12.98;4.80;;;;;;;;;;5080415;28;20044;-88
2024/01/21 11:18:01;;;;;;;;;;;;;;;;;;5088555;28;20619;-89
2024/01/21 11:20:29;;;;;;;11.30;4.77;;;;;;;;;;5103261;28;19926;-89
2024/01/21 11:22:57;;;;;;;10.63;4.93;;;;;;;;;;5086211;28;20123;-90
2024/01/21 11:25:36;;;;;;;10.45;4.88;;;;;;;;;;5086213;28;20048;-88
2024/01/21 11:28:04;;;;;;;10.85;5.13;;;;;;;;;;5083753;28;20083;-89
2024/01/21 11:30:30;;;;;;;10.65;5.75;;;;;;;;;;5102839;28;20385;-88
2024/01/21 11:32:59;;;;;;;11.32;5.55;;;;;;;;;;5090393;28;20048;-89
2024/01/21 11:35:28;;;;;;;11.40;5.63;;;;;;;;;;5079715;28;20105;-89
2024/01/21 11:37:54;;;;;;;11.23;5.68;;;;;;;;;;5097742;28;20055;-89
2024/01/21 11:40:21;;;;;;;12.40;5.70;;;;;;;;;;5116082;28;20039;-89
2024/01/21 11:42:50;;;;;;;13.38;6.13;;;;;;;;;;5077481;28;20073;-89
2024/01/21 11:45:16;;;;;;;14.68;6.40;;;;;;;;;;5081188;28;20044;-89
2024/01/21 11:47:42;;;;;;;13.57;5.75;;;;;;;;;;5088976;28;20096;-90
2024/01/21 11:50:09;;;;;;;13.57;5.35;;;;;;;;;;5076500;28;20484;-90
2024/01/21 11:52:39;;;;;;;13.48;6.38;;;;;;;;;;5095259;28;20052;-88
2024/01/21 11:55:05;;;;;;;12.98;5.50;;;;;;;;;;5095554;28;20040;-89
2024/01/21 11:57:31;;;;;;;15.05;6.00;;;;;;;;;;5060887;28;20056;-88
2024/01/21 11:59:57;;;;;;;;;;;;;;;;;;5080429;28;20040;-90
2024/01/21 12:02:25;;;;;;;12.05;5.85;;;;;;;;;;5077210;28;20369;-86
2024/01/21 12:04:51;;;;;;;10.40;5.53;;;;;;;;;;5077847;28;20052;-90
2024/01/21 12:07:18;;;;;;;12.10;6.50;;;;;;;;;;5080035;28;20131;-90
2024/01/21 12:09:44;;;;;;;12.27;6.13;;;;;;;;;;5086778;28;20505;-89
2024/01/21 12:12:10;;;;;;;;;;;;;;;;;;5062395;28;20139;-89
2024/01/21 12:14:37;;;;;;;13.20;5.55;;;;;;;;;;5076881;28;19928;-90
2024/01/21 12:17:03;;;;;;;12.73;6.13;;;;;;;;;;5094921;28;20467;-89
2024/01/21 12:19:29;;;;;;;12.45;5.57;;;;;;;;;;5077779;28;20077;-86
2024/01/21 12:21:55;;;;;;;12.20;5.22;;;;;;;;;;5077850;28;20054;-87
2024/01/21 12:24:25;;;;;;;;;;;;;;;;;;5091347;28;20138;-88
2024/01/21 12:26:55;;;;;;;11.13;5.35;;;;;;;;;;5097551;28;20002;-88
2024/01/21 12:29:21;;;;;;;10.82;5.20;;;;;;;;;;5104209;28;20043;-88
2024/01/21 12:31:50;;;;;;;10.20;5.57;;;;;;;;;;5093472;28;20119;-88
2024/01/21 12:34:18;;;;;;;12.35;5.68;;;;;;;;;;5079673;28;20114;-87
2024/01/21 12:36:46;;;;;;;13.45;5.88;;;;;;;;;;5087587;28;20047;-87
2024/01/21 12:39:13;;;;;;;10.10;5.40;;;;;;;;;;5103687;28;20051;-87
2024/01/21 12:41:39;;;;;;;11.18;5.70;;;;;;;;;;5088443;28;20053;-88
2024/01/21 12:44:06;;;;;;;11.65;5.38;;;;;;;;;;5106123;28;20044;-86
2024/01/21 12:46:32;;;;;;;11.52;5.32;;;;;;;;;;5113734;28;20050;-86
2024/01/21 12:48:59;;;;;;;13.73;5.47;;;;;;;;;;5113516;28;20044;-88
2024/01/21 12:51:25;;;;;;;13.10;6.07;;;;;;;;;;5114449;28;20050;-88
2024/01/21 12:53:53;;;;;;;11.35;5.18;;;;;;;;;;5081892;28;20067;-84
2024/01/21 12:56:20;;;;;;;13.88;5.80;;;;;;;;;;5112182;28;20121;-88
2024/01/21 12:58:47;;;;;;;15.13;5.75;;;;;;;;;;5078188;28;20056;-89
2024/01/21 13:01:13;;;;;;;10.40;5.60;;;;;;;;;;5094795;28;20134;-91
2024/01/21 13:03:39;;;;;;;;;;;;;;;;;;5096739;28;20485;-90
2024/01/21 13:06:06;;;;;;;12.10;5.70;;;;;;;;;;5085357;28;19933;-90
2024/01/21 13:08:36;;;;;;;12.38;6.05;;;;;;;;;;5101918;28;20476;-85
2024/01/21 13:11:05;;;;;;;14.55;6.30;;;;;;;;;;5084860;28;20040;-85
2024/01/21 13:13:31;;;;;;;14.25;5.75;;;;;;;;;;5084930;28;20115;-89
2024/01/21 13:15:58;;;;;;;13.40;5.35;;;;;;;;;;5103298;28;20072;-88
2024/01/21 13:18:24;;;;;;;14.02;6.07;;;;;;;;;;5103755;28;20040;-89
2024/01/21 13:20:50;;;;;;;11.30;5.53;;;;;;;;;;5108288;28;20084;-90
2024/01/21 13:23:16;;;;;;;10.00;5.72;;;;;;;;;;5090162;28;20035;-88
2024/01/21 13:25:42;;;;;;;;;;;;;;;;;;5079354;28;20089;-89
2024/01/21 13:28:17;;;;;;;16.83;6.40;;;;;;;;;;5104289;28;20018;-91
2024/01/21 13:30:43;;;;;;;12.32;6.30;;;;;;;;;;5100566;28;20044;-88
2024/01/21 13:33:11;;;;;;;14.55;5.88;;;;;;;;;;5107821;28;20047;-89
2024/01/21 13:35:37;;;;;;;15.32;6.90;;;;;;;;;;5106755;28;20090;-87
2024/01/21 13:38:05;;;;;;;13.93;6.22;;;;;;;;;;5075784;28;20534;-87
2024/01/21 13:40:31;;;;;;;13.18;7.07;;;;;;;;;;5099174;28;20358;-89
2024/01/21 13:42:57;;;;;;;;;;;;;;;;;;5101088;28;20050;-87
2024/01/21 13:45:23;;;;;;;14.27;6.70;;;;;;;;;;5103202;28;19935;-86
2024/01/21 13:47:49;;;;;;;12.10;6.30;;;;;;;;;;5097721;28;20040;-88
2024/01/21 13:50:15;;;;;;;;;;;;;;;;;;5099344;28;20050;-87
2024/01/21 13:52:41;;;;;;;13.90;6.40;;;;;;;;;;5090233;28;20011;-88
2024/01/21 13:55:08;;;;;;;;;;;;;;;;;;5088661;28;20052;-89
2024/01/21 13:57:37;;;;;;;15.27;6.55;;;;;;;;;;5105073;28;19987;-90
2024/01/21 14:00:04;;;;;;;15.23;6.65;;;;;;;;;;5081789;28;20080;-86
2024/01/21 14:02:30;;;;;;;11.10;6.00;;;;;;;;;;5102363;28;20039;-84
2024/01/21 14:04:56;;;;;;;;;;;;;;;;;;5098320;28;20043;-90
2024/01/21 14:07:22;;;;;;;13.27;6.07;;;;;;;;;;5079994;28;19969;-91
2024/01/21 14:09:48;;;;;;;;;;;;;;;;;;5099091;28;20174;-89
2024/01/21 14:12:16;;;;;;;15.20;6.18;;;;;;;;;;5086799;28;20613;-85
2024/01/21 14:14:43;;;;;;;15.48;6.20;;;;;;;;;;5076300;28;20141;-85
2024/01/21 14:17:09;;;;;;;16.60;6.75;;;;;;;;;;5100199;28;20369;-87
2024/01/21 14:19:35;;;;;;;;;;;;;;;;;;5087123;28;20085;-88
2024/01/21 14:22:01;;;;;;;12.65;6.43;;;;;;;;;;5105040;28;19943;-84
2024/01/21 14:24:27;;;;;;;11.45;6.03;;;;;;;;;;5083136;28;20043;-87
2024/01/21 14:26:53;;;;;;;13.55;6.38;;;;;;;;;;5082702;28;20054;-85
2024/01/21 14:29:19;;;;;;;;;;;;;;;;;;5087875;28;20094;-86
2024/01/21 14:31:45;;;;;;;10.70;6.15;;;;;;;;;;5105707;28;20360;-85
2024/01/21 14:34:11;;;;;;;;;;;;;;;;;;5081544;28;20040;-88
2024/01/21 14:36:40;;;;;;;14.82;6.50;;;;;;;;;;5098134;28;19919;-86
2024/01/21 14:39:07;;;;;;;14.38;6.60;;;;;;;;;;5081307;28;20050;-87
2024/01/21 14:41:33;;;;;;;14.07;5.93;;;;;;;;;;5099919;28;20118;-86
2024/01/21 14:43:59;;;;;;;14.75;6.53;;;;;;;;;;5084478;28;20048;-90
2024/01/21 14:46:25;;;;;;;14.60;7.35;;;;;;;;;;5083865;28;20044;-88
2024/01/21 14:48:51;;;;;;;;;;;;;;;;;;5075865;28;20370;-88
2024/01/21 14:51:17;;;;;;;16.08;6.88;;;;;;;;;;5079474;28;19946;-88
2024/01/21 14:53:43;;;;;;;;;;;;;;;;;;5074536;28;20097;-87
2024/01/21 14:56:09;;;;;;;17.20;6.85;;;;;;;;;;5097064;28;19920;-87